sensor_id;sensor_type;location;lat;lon;timestamp;pressure;altitude;pressure_sealevel;temperature;humidity
76024;BME280;64719;52.124;6.226;2023-08-06T00:01:23;100667.66;;;14.72;100.00
76024;BME280;64719;52.124;6.226;2023-08-06T00:03:52;100667.09;;;14.70;100.00
76024;BME280;64719;52.124;6.226;2023-08-06T00:06:18;100666.59;;;14.78;100.00
76024;BME280;64719;52.124;6.226;2023-08-06T00:08:45;100663.88;;;14.78;100.00
76024;BME280;64719;52.124;6.226;2023-08-06T00:11:11;100659.78;;;14.81;100.00
76024;BME280;64719;52.124;6.226;2023-08-06T00:13:38;100653.84;;;14.89;100.00
76024;BME280;64719;52.124;6.226;2023-08-06T00:16:09;100667.75;;;14.87;100.00
76024;BME280;64719;52.124;6.226;2023-08-06T00:18:35;100664.19;;;14.87;100.00
76024;BME280;64719;52.124;6.226;2023-08-06T00:21:03;100662.25;;;14.82;100.00
76024;BME280;64719;52.124;6.226;2023-08-06T00:23:30;100663.09;;;14.83;100.00
76024;BME280;64719;52.124;6.226;2023-08-06T00:25:57;100660.91;;;14.85;100.00
76024;BME280;64719;52.124;6.226;2023-08-06T00:28:23;100648.38;;;14.89;100.00
76024;BME280;64719;52.124;6.226;2023-08-06T00:30:52;100650.00;;;14.90;100.00
76024;BME280;64719;52.124;6.226;2023-08-06T00:33:19;100651.09;;;14.94;100.00
76024;BME280;64719;52.124;6.226;2023-08-06T00:35:45;100647.00;;;14.91;100.00
76024;BME280;64719;52.124;6.226;2023-08-06T00:38:13;100650.84;;;14.95;100.00
76024;BME280;64719;52.124;6.226;2023-08-06T00:40:40;100651.09;;;14.94;100.00
76024;BME280;64719;52.124;6.226;2023-08-06T00:43:07;100650.56;;;14.92;100.00
76024;BME280;64719;52.124;6.226;2023-08-06T00:45:35;100655.78;;;14.98;100.00
76024;BME280;64719;52.124;6.226;2023-08-06T00:48:03;100654.72;;;14.99;100.00
76024;BME280;64719;52.124;6.226;2023-08-06T00:50:31;100650.31;;;14.93;100.00
76024;BME280;64719;52.124;6.226;2023-08-06T00:52:58;100651.09;;;14.94;100.00
76024;BME280;64719;52.124;6.226;2023-08-06T00:55:26;100645.13;;;14.97;100.00
76024;BME280;64719;52.124;6.226;2023-08-06T00:57:54;100640.75;;;14.96;100.00
76024;BME280;64719;52.124;6.226;2023-08-06T01:00:22;100650.84;;;14.95;100.00
76024;BME280;64719;52.124;6.226;2023-08-06T01:02:49;100646.75;;;14.93;100.00
76024;BME280;64719;52.124;6.226;2023-08-06T01:05:15;100644.31;;;14.96;100.00
76024;BME280;64719;52.124;6.226;2023-08-06T01:07:51;100642.38;;;14.97;100.00
76024;BME280;64719;52.124;6.226;2023-08-06T01:10:32;100650.03;;;14.95;100.00
76024;BME280;64719;52.124;6.226;2023-08-06T01:13:11;100645.66;;;14.94;100.00
76024;BME280;64719;52.124;6.226;2023-08-06T01:15:46;100646.78;;;14.98;100.00
76024;BME280;64719;52.124;6.226;2023-08-06T01:18:12;100646.78;;;14.98;100.00
76024;BME280;64719;52.124;6.226;2023-08-06T01:20:40;100640.19;;;14.94;100.00
76024;BME280;64719;52.124;6.226;2023-08-06T01:23:07;100634.19;;;14.92;100.00
76024;BME280;64719;52.124;6.226;2023-08-06T01:25:36;100631.97;;;14.89;100.00
76024;BME280;64719;52.124;6.226;2023-08-06T01:28:13;100636.03;;;14.86;100.00
76024;BME280;64719;52.124;6.226;2023-08-06T01:30:43;100634.94;;;14.82;100.00
76024;BME280;64719;52.124;6.226;2023-08-06T01:33:13;100633.56;;;14.80;100.00
76024;BME280;64719;52.124;6.226;2023-08-06T01:35:42;100639.84;;;14.80;100.00
76024;BME280;64719;52.124;6.226;2023-08-06T01:38:09;100638.19;;;14.79;100.00
76024;BME280;64719;52.124;6.226;2023-08-06T01:40:36;100634.34;;;14.75;100.00
76024;BME280;64719;52.124;6.226;2023-08-06T01:43:02;100641.97;;;14.73;100.00
76024;BME280;64719;52.124;6.226;2023-08-06T01:45:29;100633.84;;;14.78;100.00
76024;BME280;64719;52.124;6.226;2023-08-06T01:47:55;100631.09;;;14.78;100.00
76024;BME280;64719;52.124;6.226;2023-08-06T01:50:22;100636.84;;;14.82;100.00
76024;BME280;64719;52.124;6.226;2023-08-06T01:52:50;100630.00;;;14.79;100.00
76024;BME280;64719;52.124;6.226;2023-08-06T01:55:16;100632.16;;;14.77;100.00
76024;BME280;64719;52.124;6.226;2023-08-06T01:57:43;100634.09;;;14.77;100.00
76024;BME280;64719;52.124;6.226;2023-08-06T02:00:11;100638.19;;;14.79;100.00
76024;BME280;64719;52.124;6.226;2023-08-06T02:02:38;100635.19;;;14.81;100.00
76024;BME280;64719;52.124;6.226;2023-08-06T02:05:06;100637.94;;;14.81;100.00
76024;BME280;64719;52.124;6.226;2023-08-06T02:07:34;100635.50;;;14.84;100.00
76024;BME280;64719;52.124;6.226;2023-08-06T02:10:02;100635.78;;;14.88;100.00
76024;BME280;64719;52.124;6.226;2023-08-06T02:12:29;100639.34;;;14.88;100.00
76024;BME280;64719;52.124;6.226;2023-08-06T02:14:55;100639.34;;;14.88;100.00
76024;BME280;64719;52.124;6.226;2023-08-06T02:17:22;100638.25;;;14.89;100.00
76024;BME280;64719;52.124;6.226;2023-08-06T02:19:48;100631.16;;;14.88;100.00
76024;BME280;64719;52.124;6.226;2023-08-06T02:22:15;100631.97;;;14.89;100.00
76024;BME280;64719;52.124;6.226;2023-08-06T02:24:41;100636.59;;;14.88;100.00
76024;BME280;64719;52.124;6.226;2023-08-06T02:27:09;100630.88;;;14.90;100.00
76024;BME280;64719;52.124;6.226;2023-08-06T02:29:36;100628.44;;;14.93;100.00
76024;BME280;64719;52.124;6.226;2023-08-06T02:32:03;100620.78;;;14.95;100.00
76024;BME280;64719;52.124;6.226;2023-08-06T02:34:29;100619.41;;;14.93;100.00
76024;BME280;64719;52.124;6.226;2023-08-06T02:36:56;100619.41;;;14.93;100.00
76024;BME280;64719;52.124;6.226;2023-08-06T02:39:23;100613.13;;;14.92;100.00
76024;BME280;64719;52.124;6.226;2023-08-06T02:41:49;100616.13;;;14.91;100.00
76024;BME280;64719;52.124;6.226;2023-08-06T02:44:17;100614.22;;;14.91;100.00
76024;BME280;64719;52.124;6.226;2023-08-06T02:46:44;100611.75;;;14.90;100.00
76024;BME280;64719;52.124;6.226;2023-08-06T02:49:10;100608.22;;;14.94;100.00
76024;BME280;64719;52.124;6.226;2023-08-06T02:51:37;100608.53;;;14.98;100.00
76024;BME280;64719;52.124;6.226;2023-08-06T02:54:04;100605.25;;;15.01;100.00
76024;BME280;64719;52.124;6.226;2023-08-06T02:56:30;100607.97;;;14.96;100.00
76024;BME280;64719;52.124;6.226;2023-08-06T02:58:57;100601.41;;;14.92;100.00
76024;BME280;64719;52.124;6.226;2023-08-06T03:01:25;100596.72;;;14.92;100.00
76024;BME280;64719;52.124;6.226;2023-08-06T03:03:52;100601.13;;;14.93;100.00
76024;BME280;64719;52.124;6.226;2023-08-06T03:06:18;100592.38;;;14.91;100.00
76024;BME280;64719;52.124;6.226;2023-08-06T03:08:45;100589.06;;;14.84;100.00
76024;BME280;64719;52.124;6.226;2023-08-06T03:11:11;100590.69;;;14.85;100.00
76024;BME280;64719;52.124;6.226;2023-08-06T03:13:38;100587.66;;;14.82;100.00
76024;BME280;64719;52.124;6.226;2023-08-06T03:16:05;100583.34;;;14.86;100.00
76024;BME280;64719;52.124;6.226;2023-08-06T03:18:33;100583.34;;;14.86;100.00
76024;BME280;64719;52.124;6.226;2023-08-06T03:20:59;100585.22;;;14.85;100.00
76024;BME280;64719;52.124;6.226;2023-08-06T03:23:26;100586.03;;;14.81;100.00
76024;BME280;64719;52.124;6.226;2023-08-06T03:25:53;100584.41;;;14.80;100.00
76024;BME280;64719;52.124;6.226;2023-08-06T03:28:19;100583.00;;;14.77;100.00
76024;BME280;64719;52.124;6.226;2023-08-06T03:30:47;100590.66;;;14.75;100.00
76024;BME280;64719;52.124;6.226;2023-08-06T03:33:14;100587.38;;;14.78;100.00
76024;BME280;64719;52.124;6.226;2023-08-06T03:35:42;100587.09;;;14.75;100.00
76024;BME280;64719;52.124;6.226;2023-08-06T03:38:08;100582.19;;;14.77;100.00
76024;BME280;64719;52.124;6.226;2023-08-06T03:40:35;100581.66;;;14.85;100.00
76024;BME280;64719;52.124;6.226;2023-08-06T03:43:02;100575.38;;;14.79;100.00
76024;BME280;64719;52.124;6.226;2023-08-06T03:45:29;100575.09;;;14.81;100.00
76024;BME280;64719;52.124;6.226;2023-08-06T03:47:56;100581.41;;;14.81;100.00
76024;BME280;64719;52.124;6.226;2023-08-06T03:50:22;100580.56;;;14.81;100.00
76024;BME280;64719;52.124;6.226;2023-08-06T03:52:50;100579.19;;;14.83;100.00
76024;BME280;64719;52.124;6.226;2023-08-06T03:55:17;100584.41;;;14.80;100.00
76024;BME280;64719;52.124;6.226;2023-08-06T03:57:43;100589.84;;;14.80;100.00
76024;BME280;64719;52.124;6.226;2023-08-06T04:00:10;100588.75;;;14.81;100.00
76024;BME280;64719;52.124;6.226;2023-08-06T04:02:37;100591.75;;;14.79;100.00
76024;BME280;64719;52.124;6.226;2023-08-06T04:05:04;100586.84;;;14.81;100.00
76024;BME280;64719;52.124;6.226;2023-08-06T04:07:31;100586.34;;;14.84;100.00
76024;BME280;64719;52.124;6.226;2023-08-06T04:10:01;100592.59;;;14.85;100.00
76024;BME280;64719;52.124;6.226;2023-08-06T04:12:28;100593.44;;;14.85;100.00
76024;BME280;64719;52.124;6.226;2023-08-06T04:14:57;100591.53;;;14.86;100.00
76024;BME280;64719;52.124;6.226;2023-08-06T04:17:23;100590.44;;;14.87;100.00
76024;BME280;64719;52.124;6.226;2023-08-06T04:19:52;100593.47;;;14.90;100.00
76024;BME280;64719;52.124;6.226;2023-08-06T04:22:19;100588.00;;;14.90;100.00
76024;BME280;64719;52.124;6.226;2023-08-06T04:24:46;100590.16;;;14.88;100.00
76024;BME280;64719;52.124;6.226;2023-08-06T04:27:15;100588.78;;;14.86;100.00
76024;BME280;64719;52.124;6.226;2023-08-06T04:29:42;100587.69;;;14.87;100.00
76024;BME280;64719;52.124;6.226;2023-08-06T04:32:09;100586.09;;;14.96;100.00
76024;BME280;64719;52.124;6.226;2023-08-06T04:34:36;100593.47;;;14.90;100.00
76024;BME280;64719;52.124;6.226;2023-08-06T04:37:04;100583.09;;;14.97;100.00
76024;BME280;64719;52.124;6.226;2023-08-06T04:39:31;100588.88;;;15.01;100.00
76024;BME280;64719;52.124;6.226;2023-08-06T04:41:58;100593.75;;;14.99;100.00
76024;BME280;64719;52.124;6.226;2023-08-06T04:44:26;100586.13;;;15.06;100.00
76024;BME280;64719;52.124;6.226;2023-08-06T04:46:52;100597.06;;;15.01;100.00
76024;BME280;64719;52.124;6.226;2023-08-06T04:49:20;100601.97;;;14.99;100.00
76024;BME280;64719;52.124;6.226;2023-08-06T04:51:47;100594.31;;;15.06;100.00
76024;BME280;64719;52.124;6.226;2023-08-06T04:54:14;100601.47;;;15.07;100.00
76024;BME280;64719;52.124;6.226;2023-08-06T04:56:40;100599.28;;;15.14;100.00
76024;BME280;64719;52.124;6.226;2023-08-06T04:59:07;100600.97;;;15.20;100.00
76024;BME280;64719;52.124;6.226;2023-08-06T05:01:35;100601.78;;;15.20;100.00
76024;BME280;64719;52.124;6.226;2023-08-06T05:04:01;100594.69;;;15.24;100.00
76024;BME280;64719;52.124;6.226;2023-08-06T05:06:28;100604.84;;;15.34;100.00
76024;BME280;64719;52.124;6.226;2023-08-06T05:08:54;100601.06;;;15.40;100.00
76024;BME280;64719;52.124;6.226;2023-08-06T05:11:21;100604.09;;;15.43;100.00
76024;BME280;64719;52.124;6.226;2023-08-06T05:13:49;100605.72;;;15.44;100.00
76024;BME280;64719;52.124;6.226;2023-08-06T05:16:15;100606.31;;;15.56;100.00
76024;BME280;64719;52.124;6.226;2023-08-06T05:18:43;100597.28;;;15.71;100.00
76024;BME280;64719;52.124;6.226;2023-08-06T05:21:10;100596.75;;;15.74;100.00
76024;BME280;64719;52.124;6.226;2023-08-06T05:23:37;100598.69;;;15.73;100.00
76024;BME280;64719;52.124;6.226;2023-08-06T05:26:03;100603.06;;;15.84;100.00
76024;BME280;64719;52.124;6.226;2023-08-06T05:28:30;100598.69;;;15.98;100.00
76024;BME280;64719;52.124;6.226;2023-08-06T05:30:56;100600.34;;;15.99;100.00
76024;BME280;64719;52.124;6.226;2023-08-06T05:33:23;100607.75;;;15.99;100.00
76024;BME280;64719;52.124;6.226;2023-08-06T05:35:51;100601.44;;;16.03;100.00
76024;BME280;64719;52.124;6.226;2023-08-06T05:38:17;100605.25;;;15.87;100.00
76024;BME280;64719;52.124;6.226;2023-08-06T05:40:44;100608.56;;;15.94;100.00
76024;BME280;64719;52.124;6.226;2023-08-06T05:43:10;100612.66;;;15.97;100.00
76024;BME280;64719;52.124;6.226;2023-08-06T05:45:37;100614.59;;;16.21;100.00
76024;BME280;64719;52.124;6.226;2023-08-06T05:48:04;100615.41;;;16.02;100.00
76024;BME280;64719;52.124;6.226;2023-08-06T05:50:30;100614.31;;;16.03;100.00
76024;BME280;64719;52.124;6.226;2023-08-06T05:52:58;100627.44;;;16.01;100.00
76024;BME280;64719;52.124;6.226;2023-08-06T05:55:25;100624.44;;;15.97;100.00
76024;BME280;64719;52.124;6.226;2023-08-06T05:57:51;100627.44;;;15.91;100.00
76024;BME280;64719;52.124;6.226;2023-08-06T06:00:18;100639.50;;;16.15;100.00
76024;BME280;64719;52.124;6.226;2023-08-06T06:02:45;100632.34;;;16.04;100.00
76024;BME280;64719;52.124;6.226;2023-08-06T06:05:12;100637.31;;;16.12;100.00
76024;BME280;64719;52.124;6.226;2023-08-06T06:07:38;100622.22;;;16.14;100.00
76024;BME280;64719;52.124;6.226;2023-08-06T06:10:07;100641.66;;;16.13;100.00
76024;BME280;64719;52.124;6.226;2023-08-06T06:12:34;100646.34;;;16.22;100.00
76024;BME280;64719;52.124;6.226;2023-08-06T06:15:01;100644.44;;;16.33;100.00
76024;BME280;64719;52.124;6.226;2023-08-06T06:17:28;100644.44;;;16.48;100.00
76024;BME280;64719;52.124;6.226;2023-08-06T06:19:55;100638.13;;;16.37;100.00
76024;BME280;64719;52.124;6.226;2023-08-06T06:22:22;100635.69;;;16.56;100.00
76024;BME280;64719;52.124;6.226;2023-08-06T06:24:48;100638.13;;;16.68;100.00
76024;BME280;64719;52.124;6.226;2023-08-06T06:27:16;100646.38;;;16.58;100.00
76024;BME280;64719;52.124;6.226;2023-08-06T06:29:42;100653.47;;;16.79;100.00
76024;BME280;64719;52.124;6.226;2023-08-06T06:32:09;100643.25;;;16.99;100.00
76024;BME280;64719;52.124;6.226;2023-08-06T06:34:35;100649.88;;;16.83;100.00
76024;BME280;64719;52.124;6.226;2023-08-06T06:37:02;100649.53;;;17.10;100.00
76024;BME280;64719;52.124;6.226;2023-08-06T06:39:29;100645.44;;;17.07;100.00
76024;BME280;64719;52.124;6.226;2023-08-06T06:41:55;100648.44;;;17.11;100.00
76024;BME280;64719;52.124;6.226;2023-08-06T06:44:24;100647.94;;;16.99;100.00
76024;BME280;64719;52.124;6.226;2023-08-06T06:46:50;100657.00;;;16.89;100.00
76024;BME280;64719;52.124;6.226;2023-08-06T06:49:17;100658.91;;;16.94;100.00
76024;BME280;64719;52.124;6.226;2023-08-06T06:51:43;100649.00;;;16.98;100.00
76024;BME280;64719;52.124;6.226;2023-08-06T06:54:10;100653.09;;;17.05;100.00
76024;BME280;64719;52.124;6.226;2023-08-06T06:56:36;100662.59;;;17.48;100.00
76024;BME280;64719;52.124;6.226;2023-08-06T06:59:03;100664.22;;;17.49;100.00
76024;BME280;64719;52.124;6.226;2023-08-06T07:01:31;100664.25;;;17.39;100.00
76024;BME280;64719;52.124;6.226;2023-08-06T07:03:58;100660.41;;;17.45;100.00
76024;BME280;64719;52.124;6.226;2023-08-06T07:06:24;100662.84;;;17.51;100.00
76024;BME280;64719;52.124;6.226;2023-08-06T07:08:51;100666.44;;;17.37;100.00
76024;BME280;64719;52.124;6.226;2023-08-06T07:11:18;100663.38;;;17.53;100.00
76024;BME280;64719;52.124;6.226;2023-08-06T07:13:44;100664.84;;;17.26;100.00
76024;BME280;64719;52.124;6.226;2023-08-06T07:16:11;100674.69;;;17.32;100.00
76024;BME280;64719;52.124;6.226;2023-08-06T07:18:39;100678.53;;;17.31;100.00
76024;BME280;64719;52.124;6.226;2023-08-06T07:21:05;100667.72;;;17.59;100.00
76024;BME280;64719;52.124;6.226;2023-08-06T07:23:31;100675.19;;;18.02;100.00
76024;BME280;64719;52.124;6.226;2023-08-06T07:25:58;100671.38;;;17.45;100.00
76024;BME280;64719;52.124;6.226;2023-08-06T07:28:24;100672.91;;;17.66;100.00
76024;BME280;64719;52.124;6.226;2023-08-06T07:30:50;100670.66;;;17.78;100.00
76024;BME280;64719;52.124;6.226;2023-08-06T07:33:17;100677.66;;;17.50;100.00
76024;BME280;64719;52.124;6.226;2023-08-06T07:35:45;100682.41;;;17.83;100.00
76024;BME280;64719;52.124;6.226;2023-08-06T07:38:11;100683.28;;;17.79;100.00
76024;BME280;64719;52.124;6.226;2023-08-06T07:40:38;100682.38;;;17.98;100.00
76024;BME280;64719;52.124;6.226;2023-08-06T07:43:05;100680.16;;;17.95;100.00
76024;BME280;64719;52.124;6.226;2023-08-06T07:45:34;100669.84;;;18.21;100.00
76024;BME280;64719;52.124;6.226;2023-08-06T07:48:01;100674.78;;;18.58;100.00
76024;BME280;64719;52.124;6.226;2023-08-06T07:50:28;100674.41;;;18.98;100.00
76024;BME280;64719;52.124;6.226;2023-08-06T07:52:56;100666.28;;;19.35;100.00
76024;BME280;64719;52.124;6.226;2023-08-06T07:55:23;100670.84;;;19.44;100.00
76024;BME280;64719;52.124;6.226;2023-08-06T07:57:49;100670.97;;;19.58;100.00
76024;BME280;64719;52.124;6.226;2023-08-06T08:00:16;100667.19;;;20.10;100.00
76024;BME280;64719;52.124;6.226;2023-08-06T08:02:42;100658.63;;;19.55;100.00
76024;BME280;64719;52.124;6.226;2023-08-06T08:05:09;100671.41;;;19.46;100.00
76024;BME280;64719;52.124;6.226;2023-08-06T08:07:35;100664.50;;;19.67;100.00
76024;BME280;64719;52.124;6.226;2023-08-06T08:10:04;100663.09;;;19.23;100.00
76024;BME280;64719;52.124;6.226;2023-08-06T08:12:31;100670.84;;;18.92;100.00
76024;BME280;64719;52.124;6.226;2023-08-06T08:14:58;100671.44;;;18.61;100.00
76024;BME280;64719;52.124;6.226;2023-08-06T08:17:24;100673.25;;;18.47;100.00
76024;BME280;64719;52.124;6.226;2023-08-06T08:19:51;100670.72;;;18.79;100.00
76024;BME280;64719;52.124;6.226;2023-08-06T08:22:17;100668.47;;;19.09;100.00
76024;BME280;64719;52.124;6.226;2023-08-06T08:24:44;100662.78;;;19.71;100.00
76024;BME280;64719;52.124;6.226;2023-08-06T08:27:12;100670.91;;;19.63;100.00
76024;BME280;64719;52.124;6.226;2023-08-06T08:29:38;100669.47;;;20.26;100.00
76024;BME280;64719;52.124;6.226;2023-08-06T08:32:05;100666.81;;;20.35;100.00
76024;BME280;64719;52.124;6.226;2023-08-06T08:34:32;100661.13;;;21.09;100.00
76024;BME280;64719;52.124;6.226;2023-08-06T08:36:58;100653.44;;;21.06;100.00
76024;BME280;64719;52.124;6.226;2023-08-06T08:39:25;100663.25;;;21.66;100.00
76024;BME280;64719;52.124;6.226;2023-08-06T08:41:52;100653.22;;;21.43;100.00
76024;BME280;64719;52.124;6.226;2023-08-06T08:44:20;100671.47;;;21.17;100.00
76024;BME280;64719;52.124;6.226;2023-08-06T08:46:47;100662.63;;;20.37;100.00
76024;BME280;64719;52.124;6.226;2023-08-06T08:49:14;100670.13;;;19.57;100.00
76024;BME280;64719;52.124;6.226;2023-08-06T08:51:40;100675.38;;;19.35;100.00
76024;BME280;64719;52.124;6.226;2023-08-06T08:54:08;100670.66;;;19.59;100.00
76024;BME280;64719;52.124;6.226;2023-08-06T08:56:37;100667.47;;;19.24;100.00
76024;BME280;64719;52.124;6.226;2023-08-06T08:59:03;100682.66;;;19.68;100.00
76024;BME280;64719;52.124;6.226;2023-08-06T09:01:31;100675.09;;;19.79;100.00
76024;BME280;64719;52.124;6.226;2023-08-06T09:03:59;100676.56;;;19.71;100.00
76024;BME280;64719;52.124;6.226;2023-08-06T09:06:28;100680.34;;;19.75;100.00
76024;BME280;64719;52.124;6.226;2023-08-06T09:09:00;100675.69;;;20.13;100.00
76024;BME280;64719;52.124;6.226;2023-08-06T09:11:29;100667.25;;;20.42;100.00
76024;BME280;64719;52.124;6.226;2023-08-06T09:14:04;100675.72;;;20.96;100.00
76024;BME280;64719;52.124;6.226;2023-08-06T09:16:34;100672.59;;;20.84;100.00
76024;BME280;64719;52.124;6.226;2023-08-06T09:19:06;100678.75;;;19.93;100.00
76024;BME280;64719;52.124;6.226;2023-08-06T09:21:36;100686.66;;;20.18;100.00
76024;BME280;64719;52.124;6.226;2023-08-06T09:24:07;100682.41;;;20.26;100.00
76024;BME280;64719;52.124;6.226;2023-08-06T09:26:33;100685.91;;;20.63;100.00
76024;BME280;64719;52.124;6.226;2023-08-06T09:29:00;100687.00;;;20.49;100.00
76024;BME280;64719;52.124;6.226;2023-08-06T09:31:34;100689.81;;;20.62;100.00
76024;BME280;64719;52.124;6.226;2023-08-06T09:34:10;100695.91;;;20.91;100.00
76024;BME280;64719;52.124;6.226;2023-08-06T09:36:40;100695.47;;;21.16;100.00
76024;BME280;64719;52.124;6.226;2023-08-06T09:39:12;100693.94;;;21.37;100.00
76024;BME280;64719;52.124;6.226;2023-08-06T09:41:39;100692.06;;;22.01;100.00
76024;BME280;64719;52.124;6.226;2023-08-06T09:44:14;100690.91;;;22.51;100.00
76024;BME280;64719;52.124;6.226;2023-08-06T09:46:42;100694.25;;;22.26;100.00
76024;BME280;64719;52.124;6.226;2023-08-06T09:49:09;100687.41;;;22.89;100.00
76024;BME280;64719;52.124;6.226;2023-08-06T09:51:37;100690.19;;;22.45;100.00
76024;BME280;64719;52.124;6.226;2023-08-06T09:54:05;100693.00;;;21.96;100.00
76024;BME280;64719;52.124;6.226;2023-08-06T09:56:33;100692.81;;;21.38;100.00
76024;BME280;64719;52.124;6.226;2023-08-06T09:59:04;100702.13;;;20.83;100.00
76024;BME280;64719;52.124;6.226;2023-08-06T10:01:31;100709.56;;;20.51;100.00
76024;BME280;64719;52.124;6.226;2023-08-06T10:04:00;100702.56;;;20.58;100.00
76024;BME280;64719;52.124;6.226;2023-08-06T10:06:28;100705.59;;;20.25;100.00
76024;BME280;64719;52.124;6.226;2023-08-06T10:08:55;100704.16;;;20.46;100.00
76024;BME280;64719;52.124;6.226;2023-08-06T10:11:23;100708.50;;;20.65;100.00
76024;BME280;64719;52.124;6.226;2023-08-06T10:13:53;100710.72;;;20.13;100.00
76024;BME280;64719;52.124;6.226;2023-08-06T10:16:22;100718.47;;;19.68;100.00
76024;BME280;64719;52.124;6.226;2023-08-06T10:18:49;100717.59;;;19.21;100.00
76024;BME280;64719;52.124;6.226;2023-08-06T10:21:18;100715.53;;;18.79;100.00
76024;BME280;64719;52.124;6.226;2023-08-06T10:23:53;100723.19;;;18.54;100.00
76024;BME280;64719;52.124;6.226;2023-08-06T10:26:20;100716.50;;;18.65;100.00
76024;BME280;64719;52.124;6.226;2023-08-06T10:28:51;100718.94;;;18.33;100.00
76024;BME280;64719;52.124;6.226;2023-08-06T10:31:18;100726.06;;;18.39;100.00
76024;BME280;64719;52.124;6.226;2023-08-06T10:33:45;100729.88;;;18.43;100.00
76024;BME280;64719;52.124;6.226;2023-08-06T10:36:12;100726.66;;;18.69;100.00
76024;BME280;64719;52.124;6.226;2023-08-06T10:38:47;100729.72;;;18.63;100.00
76024;BME280;64719;52.124;6.226;2023-08-06T10:41:22;100723.78;;;19.08;100.00
76024;BME280;64719;52.124;6.226;2023-08-06T10:43:50;100721.66;;;19.00;100.00
76024;BME280;64719;52.124;6.226;2023-08-06T10:46:23;100724.66;;;19.32;100.00
76024;BME280;64719;52.124;6.226;2023-08-06T10:48:53;100719.63;;;19.10;100.00
76024;BME280;64719;52.124;6.226;2023-08-06T10:51:19;100722.97;;;19.07;100.00
76024;BME280;64719;52.124;6.226;2023-08-06T10:53:49;100715.13;;;19.19;100.00
76024;BME280;64719;52.124;6.226;2023-08-06T10:56:16;100723.38;;;18.96;100.00
76024;BME280;64719;52.124;6.226;2023-08-06T10:58:44;100729.84;;;19.10;100.00
76024;BME280;64719;52.124;6.226;2023-08-06T11:01:12;100723.56;;;19.33;100.00
76024;BME280;64719;52.124;6.226;2023-08-06T11:03:39;100728.72;;;19.39;100.00
76024;BME280;64719;52.124;6.226;2023-08-06T11:06:07;100729.53;;;19.11;100.00
76024;BME280;64719;52.124;6.226;2023-08-06T11:08:35;100737.97;;;19.48;100.00
76024;BME280;64719;52.124;6.226;2023-08-06T11:11:09;100729.19;;;19.46;100.00
76024;BME280;64719;52.124;6.226;2023-08-06T11:13:38;100724.50;;;19.47;100.00
76024;BME280;64719;52.124;6.226;2023-08-06T11:16:05;100720.56;;;19.95;100.00
76024;BME280;64719;52.124;6.226;2023-08-06T11:18:31;100723.63;;;19.93;100.00
76024;BME280;64719;52.124;6.226;2023-08-06T11:20:58;100729.78;;;19.43;100.00
76024;BME280;64719;52.124;6.226;2023-08-06T11:23:26;100724.75;;;19.50;100.00
76024;BME280;64719;52.124;6.226;2023-08-06T11:25:53;100730.25;;;19.92;100.00
76024;BME280;64719;52.124;6.226;2023-08-06T11:28:21;100714.63;;;19.88;100.00
76024;BME280;64719;52.124;6.226;2023-08-06T11:30:48;100719.78;;;19.94;100.00
76024;BME280;64719;52.124;6.226;2023-08-06T11:33:20;100724.19;;;20.33;100.00
76024;BME280;64719;52.124;6.226;2023-08-06T11:35:47;100728.06;;;20.50;100.00
76024;BME280;64719;52.124;6.226;2023-08-06T11:38:14;100737.88;;;20.19;100.00
76024;BME280;64719;52.124;6.226;2023-08-06T11:40:43;100727.34;;;20.02;100.00
76024;BME280;64719;52.124;6.226;2023-08-06T11:43:09;100733.09;;;20.06;100.00
76024;BME280;64719;52.124;6.226;2023-08-06T11:45:37;100738.59;;;20.06;100.00
76024;BME280;64719;52.124;6.226;2023-08-06T11:48:04;100744.59;;;20.13;100.00
76024;BME280;64719;52.124;6.226;2023-08-06T11:50:31;100750.63;;;19.49;100.00
76024;BME280;64719;52.124;6.226;2023-08-06T11:53:00;100748.47;;;19.46;100.00
76024;BME280;64719;52.124;6.226;2023-08-06T11:55:27;100746.03;;;19.63;100.00
76024;BME280;64719;52.124;6.226;2023-08-06T11:57:54;100754.94;;;19.79;100.00
76024;BME280;64719;52.124;6.226;2023-08-06T12:00:23;100750.47;;;19.07;100.00
76024;BME280;64719;52.124;6.226;2023-08-06T12:02:51;100756.09;;;18.64;100.00
76024;BME280;64719;52.124;6.226;2023-08-06T12:05:20;100756.88;;;19.31;100.00
76024;BME280;64719;52.124;6.226;2023-08-06T12:07:49;100759.09;;;19.29;100.00
76024;BME280;64719;52.124;6.226;2023-08-06T12:10:17;100762.41;;;19.31;100.00
76024;BME280;64719;52.124;6.226;2023-08-06T12:12:44;100766.69;;;19.09;100.00
76024;BME280;64719;52.124;6.226;2023-08-06T12:15:11;100767.50;;;18.81;100.00
76024;BME280;64719;52.124;6.226;2023-08-06T12:17:38;100776.63;;;18.71;100.00
76024;BME280;64719;52.124;6.226;2023-08-06T12:20:07;100777.75;;;18.27;100.00
76024;BME280;64719;52.124;6.226;2023-08-06T12:22:35;100783.03;;;17.44;100.00
76024;BME280;64719;52.124;6.226;2023-08-06T12:25:03;100792.41;;;16.78;100.00
76024;BME280;64719;52.124;6.226;2023-08-06T12:27:33;100798.97;;;16.72;100.00
76024;BME280;64719;52.124;6.226;2023-08-06T12:29:59;100798.72;;;16.94;100.00
76024;BME280;64719;52.124;6.226;2023-08-06T12:32:26;100790.41;;;17.54;100.00
76024;BME280;64719;52.124;6.226;2023-08-06T12:34:52;100788.75;;;17.68;100.00
76024;BME280;64719;52.124;6.226;2023-08-06T12:37:21;100787.72;;;17.44;100.00
76024;BME280;64719;52.124;6.226;2023-08-06T12:39:48;100785.78;;;17.49;100.00
76024;BME280;64719;52.124;6.226;2023-08-06T12:42:15;100782.47;;;17.37;100.00